Archival Weather

Heathrow

London, United Kingdom (EGLL)

Report from: Thursday, September 21, 2023 4:20 PM BST
Current time: Sunday, July 14, 2024 11:19 AM BST

Current weather – Weather history – Daily summaries
Weather forecast

Temperature17.0°C (62.6°F)
Dew point11.0°C (51.8°F)
Winds 6 kts (3.1 m/s, 6.9 mph) Vrb
Winds variableWinds variable from South-Southeast (150°) to West-Southwest (250°)
Visibility6.2 mi. (10 km)
Clouds Scattered clouds 3,100 ft. (945 m)
Ceiling: Broken clouds 4,700 ft. (1,433 m)
Altimeter29.38 in.Hg (995 mB)
Relative humidity68 %
Density altitude1,042 ft. (317 m)
Remarks Fully automated report
Flight conditions Visual Meteorological Conditions
Raw dataEGLL 211520Z AUTO 20006KT 150V250 9999 SCT031/// BKN047/// //////CB 17/11 Q0995 TEMPO 4000 +SHRA
An error has occurred. This application may no longer respond until reloaded. Reload 🗙